createdAt,value
2018-07-31T00:00:19.746Z,27.1
2018-07-31T00:01:20.934Z,27.1
2018-07-31T00:02:22.121Z,27
2018-07-31T00:03:23.296Z,26.9
2018-07-31T00:04:24.708Z,26.7
2018-07-31T00:05:26.890Z,26.5
2018-07-31T00:06:28.082Z,26.1
2018-07-31T00:07:29.283Z,25.9
2018-07-31T00:08:37.610Z,26.4
2018-07-31T00:09:38.785Z,26.5
2018-07-31T00:10:43.131Z,26.8
2018-07-31T00:11:44.294Z,26.9
2018-07-31T00:12:45.446Z,26.7
2018-07-31T00:13:46.621Z,26.5
2018-07-31T00:14:47.817Z,26.5
2018-07-31T00:15:48.990Z,26.7
2018-07-31T00:16:50.158Z,26.6
2018-07-31T00:17:51.377Z,26.5
2018-07-31T00:18:55.421Z,26.5
2018-07-31T00:19:58.731Z,26.6
2018-07-31T00:21:00.166Z,26.4
2018-07-31T00:22:01.365Z,26.4
2018-07-31T00:23:03.586Z,26.2
2018-07-31T00:24:04.778Z,26.5
2018-07-31T00:25:05.972Z,26.7
2018-07-31T00:26:07.130Z,26.5
2018-07-31T00:27:08.292Z,26.3
2018-07-31T00:28:13.865Z,26.2
2018-07-31T00:29:15.023Z,26.5
2018-07-31T00:30:17.247Z,26.7
2018-07-31T00:31:18.398Z,26.8
2018-07-31T00:32:19.704Z,26.8
2018-07-31T00:33:21.092Z,26.8
2018-07-31T00:34:22.283Z,26.8
2018-07-31T00:35:23.484Z,26.8
2018-07-31T00:36:24.926Z,26.8
2018-07-31T00:37:26.092Z,26.8
2018-07-31T00:38:27.282Z,26.8
2018-07-31T00:39:29.714Z,26.6
2018-07-31T00:40:30.894Z,26.7
2018-07-31T00:41:32.045Z,26.3
2018-07-31T00:42:33.215Z,26.4
2018-07-31T00:43:34.364Z,26.6
2018-07-31T00:44:35.548Z,26.6
2018-07-31T00:45:36.748Z,26.4
2018-07-31T00:46:37.954Z,26.5
2018-07-31T00:47:39.186Z,26.3
2018-07-31T00:48:40.357Z,26.4
2018-07-31T00:49:41.502Z,26.4
2018-07-31T00:50:42.674Z,26.3
2018-07-31T00:51:45.146Z,26.2
2018-07-31T00:52:49.815Z,25.8
2018-07-31T00:53:50.970Z,26
2018-07-31T00:54:52.132Z,26.1
2018-07-31T00:55:53.370Z,26.1
2018-07-31T00:56:54.550Z,26
2018-07-31T00:57:55.747Z,25.6
2018-07-31T00:58:59.937Z,25.1
2018-07-31T01:00:01.131Z,25.2
2018-07-31T01:01:02.377Z,25.4
2018-07-31T01:02:03.951Z,25.6
2018-07-31T01:03:05.397Z,25.6
2018-07-31T01:04:06.840Z,25.9
2018-07-31T01:05:07.994Z,26
2018-07-31T01:06:09.234Z,26.2
2018-07-31T01:07:10.424Z,26.2
2018-07-31T01:08:11.623Z,26.2
2018-07-31T01:09:12.858Z,26.2
2018-07-31T01:10:14.042Z,26.1
2018-07-31T01:11:15.233Z,26.1
2018-07-31T01:12:16.398Z,26.2
2018-07-31T01:13:17.574Z,26.2
2018-07-31T01:14:18.804Z,26.2
2018-07-31T01:15:19.995Z,26.3
2018-07-31T01:16:21.447Z,26.2
2018-07-31T01:17:22.969Z,26.2
2018-07-31T01:18:24.126Z,26.3
2018-07-31T01:19:25.344Z,26.2
2018-07-31T01:20:26.524Z,26.2
2018-07-31T01:21:27.705Z,26.3
2018-07-31T01:22:28.914Z,26.2
2018-07-31T01:23:30.066Z,26.1
2018-07-31T01:24:31.220Z,26.2
2018-07-31T01:25:32.407Z,26.2
2018-07-31T01:26:33.637Z,26.1
2018-07-31T01:27:34.792Z,26.1
2018-07-31T01:28:37.031Z,25.6
2018-07-31T01:29:38.233Z,25.3
2018-07-31T01:30:40.526Z,25.1
2018-07-31T01:31:44.982Z,24.9
2018-07-31T01:32:46.209Z,24.9
2018-07-31T01:33:47.412Z,24.5
2018-07-31T01:34:51.054Z,24.3
2018-07-31T01:35:52.346Z,24.6
2018-07-31T01:36:53.581Z,25.2
2018-07-31T01:37:54.757Z,25.3
2018-07-31T01:38:55.906Z,25.5
2018-07-31T01:39:57.112Z,25.5
2018-07-31T01:40:58.319Z,25.1
2018-07-31T01:41:59.547Z,25.4
2018-07-31T01:43:03.146Z,25.6
2018-07-31T01:44:04.309Z,25.8
2018-07-31T01:45:05.490Z,25.9
2018-07-31T01:46:06.682Z,25.9
2018-07-31T01:47:07.886Z,25.9
2018-07-31T01:48:11.283Z,25.9
2018-07-31T01:49:12.633Z,25.8
2018-07-31T01:50:13.859Z,25.7
2018-07-31T01:51:15.751Z,25.7
2018-07-31T01:52:17.234Z,25.7
2018-07-31T01:53:18.433Z,25.7
2018-07-31T01:54:22.026Z,25.7
2018-07-31T01:55:23.187Z,25.6
2018-07-31T01:56:24.349Z,25.6
2018-07-31T01:57:25.539Z,25.7
2018-07-31T01:58:26.711Z,25.2
2018-07-31T01:59:27.870Z,25.1
2018-07-31T02:00:29.052Z,24.9
2018-07-31T02:01:31.062Z,25.1
2018-07-31T02:02:32.626Z,25.2
2018-07-31T02:03:34.014Z,25.2
2018-07-31T02:04:35.202Z,25.4
2018-07-31T02:05:36.388Z,25.4
2018-07-31T02:06:37.550Z,25.4
2018-07-31T02:07:38.880Z,25.5
2018-07-31T02:08:40.321Z,25.5
2018-07-31T02:09:41.492Z,25.5
2018-07-31T02:10:42.656Z,25.5
2018-07-31T02:11:43.874Z,25.4
2018-07-31T02:12:45.063Z,25.1
2018-07-31T02:13:46.298Z,25.3
2018-07-31T02:14:47.604Z,25.3
2018-07-31T02:15:48.776Z,25.2
2018-07-31T02:16:49.944Z,24.9
2018-07-31T02:17:51.171Z,25.2
2018-07-31T02:18:52.332Z,25.3
2018-07-31T02:19:53.514Z,25.5
2018-07-31T02:20:54.687Z,25.6
2018-07-31T02:21:55.854Z,25.4
2018-07-31T02:22:57.337Z,25.2
2018-07-31T02:23:58.896Z,24.9
2018-07-31T02:25:00.090Z,24.7
2018-07-31T02:26:01.325Z,24.9
2018-07-31T02:27:02.532Z,25
2018-07-31T02:28:03.838Z,25.1
2018-07-31T02:29:04.989Z,24.8
2018-07-31T02:30:06.150Z,24.9
2018-07-31T02:31:07.322Z,25.2
2018-07-31T02:32:08.505Z,24.8
2018-07-31T02:33:10.087Z,24.7
2018-07-31T02:34:11.291Z,24.7
2018-07-31T02:35:12.497Z,24.6
2018-07-31T02:36:13.703Z,24.5
2018-07-31T02:37:14.879Z,24.8
2018-07-31T02:38:16.364Z,25.1
2018-07-31T02:39:17.537Z,25.2
2018-07-31T02:40:18.700Z,24.9
2018-07-31T02:41:19.896Z,24.3
2018-07-31T02:42:21.087Z,23.7
2018-07-31T02:43:22.322Z,23.9
2018-07-31T02:44:23.521Z,24.2
2018-07-31T02:45:24.761Z,24.3
2018-07-31T02:46:25.920Z,24.5
2018-07-31T02:47:27.097Z,24.7
2018-07-31T02:48:28.309Z,24.9
2018-07-31T02:49:29.500Z,25.1
2018-07-31T02:50:30.681Z,25.2
2018-07-31T02:51:31.866Z,25.2
2018-07-31T02:52:33.038Z,25.1
2018-07-31T02:53:34.258Z,25.1
2018-07-31T02:54:35.450Z,25.2
2018-07-31T02:55:38.976Z,25.2
2018-07-31T02:56:40.143Z,25
2018-07-31T02:57:41.309Z,24.8
2018-07-31T02:58:42.510Z,24.5
2018-07-31T02:59:43.943Z,24
2018-07-31T03:00:47.631Z,23.8
2018-07-31T03:01:48.858Z,24
2018-07-31T03:02:50.233Z,24.1
2018-07-31T03:03:51.948Z,24.5
2018-07-31T03:04:53.133Z,24.6
2018-07-31T03:05:54.304Z,24.6
2018-07-31T03:06:55.470Z,24.2
2018-07-31T03:07:56.634Z,24.3
2018-07-31T03:08:57.819Z,24.5
2018-07-31T03:09:58.986Z,24.6
2018-07-31T03:11:02.486Z,24.8
2018-07-31T03:12:03.698Z,24.9
2018-07-31T03:13:04.899Z,25
2018-07-31T03:14:06.107Z,25.1
2018-07-31T03:15:07.294Z,25
2018-07-31T03:16:08.461Z,25
2018-07-31T03:17:09.628Z,25
2018-07-31T03:18:10.806Z,24.9
2018-07-31T03:19:14.491Z,24.9
2018-07-31T03:20:15.673Z,24.9
2018-07-31T03:21:16.822Z,24.7
2018-07-31T03:22:17.986Z,24.5
2018-07-31T03:23:19.131Z,24.5
2018-07-31T03:24:20.354Z,24.4
2018-07-31T03:25:21.527Z,24.3
2018-07-31T03:26:22.682Z,24.4
2018-07-31T03:27:23.858Z,24.2
2018-07-31T03:28:25.103Z,23.8
2018-07-31T03:29:26.301Z,24
2018-07-31T03:30:27.463Z,24.1
2018-07-31T03:31:28.642Z,24
2018-07-31T03:32:29.854Z,24
2018-07-31T03:33:31.044Z,24
2018-07-31T03:34:33.307Z,24.1
2018-07-31T03:35:34.767Z,24.3
2018-07-31T03:36:35.985Z,24.3
2018-07-31T03:37:37.332Z,24.2
2018-07-31T03:38:38.495Z,24.1
2018-07-31T03:39:39.713Z,24.3
2018-07-31T03:40:40.865Z,24.3
2018-07-31T03:41:42.040Z,24.4
2018-07-31T03:42:43.500Z,24.4
2018-07-31T03:43:44.664Z,24.5
2018-07-31T03:44:45.887Z,24.2
2018-07-31T03:45:47.036Z,24
2018-07-31T03:46:48.209Z,24.1
2018-07-31T03:47:49.616Z,24
2018-07-31T03:48:50.878Z,24
2018-07-31T03:49:52.175Z,24
2018-07-31T03:50:53.312Z,24.1
2018-07-31T03:51:54.476Z,24.4
2018-07-31T03:52:55.636Z,24.5
2018-07-31T03:53:56.808Z,24.5
2018-07-31T03:54:58.028Z,24.5
2018-07-31T03:55:59.188Z,24.5
2018-07-31T03:57:00.703Z,24.5
2018-07-31T03:58:02.138Z,24.5
2018-07-31T03:59:03.298Z,24.5
2018-07-31T04:00:04.530Z,24.5
2018-07-31T04:01:05.920Z,24.5
2018-07-31T04:02:07.062Z,24.4
2018-07-31T04:03:10.071Z,24.2
2018-07-31T04:04:11.299Z,24.2
2018-07-31T04:05:12.963Z,24.1
2018-07-31T04:06:14.533Z,23.9
2018-07-31T04:07:15.949Z,24
2018-07-31T04:08:17.115Z,23.9
2018-07-31T04:09:18.249Z,23.5
2018-07-31T04:10:19.464Z,23.3
2018-07-31T04:11:20.683Z,23.2
2018-07-31T04:12:21.897Z,23.3
2018-07-31T04:13:23.319Z,23.3
2018-07-31T04:14:24.466Z,23.2
2018-07-31T04:15:25.655Z,23.1
2018-07-31T04:16:26.803Z,23.5
2018-07-31T04:17:27.959Z,23.8
2018-07-31T04:18:29.124Z,23.8
2018-07-31T04:19:30.296Z,24
2018-07-31T04:20:31.545Z,24.2
2018-07-31T04:21:32.696Z,24.2
2018-07-31T04:22:34.112Z,24.1
2018-07-31T04:23:35.382Z,24.1
2018-07-31T04:24:36.549Z,23.9
2018-07-31T04:25:37.826Z,23.9
2018-07-31T04:26:38.974Z,24.1
2018-07-31T04:27:40.175Z,24.2
2018-07-31T04:28:41.344Z,24.1
2018-07-31T04:29:42.523Z,24.3
2018-07-31T04:30:43.738Z,24.3
2018-07-31T04:31:46.214Z,24.4
2018-07-31T04:32:47.350Z,24.4
2018-07-31T04:33:48.514Z,24.4
2018-07-31T04:34:49.757Z,24.6
2018-07-31T04:35:52.200Z,24.6
2018-07-31T04:36:53.622Z,24.7
2018-07-31T04:37:54.851Z,24.7
2018-07-31T04:38:56.046Z,24.7
2018-07-31T04:39:57.249Z,24.8
2018-07-31T04:40:58.449Z,24.9
2018-07-31T04:41:59.630Z,25
2018-07-31T04:43:04.336Z,25.1
2018-07-31T04:44:05.540Z,25.1
2018-07-31T04:45:06.770Z,25.2
2018-07-31T04:46:08.257Z,25.3
2018-07-31T04:47:09.427Z,25.4
2018-07-31T04:48:10.628Z,25.5
2018-07-31T04:49:14.185Z,25.7
2018-07-31T04:50:15.378Z,25.8
2018-07-31T04:51:17.659Z,25.8
2018-07-31T04:52:21.254Z,25.9
2018-07-31T04:53:22.427Z,25.8
2018-07-31T04:54:23.615Z,25.8
2018-07-31T04:55:24.796Z,25.8
2018-07-31T04:56:25.997Z,25.8
2018-07-31T04:57:27.268Z,25.8
2018-07-31T04:58:28.745Z,26
2018-07-31T04:59:29.921Z,26
2018-07-31T05:00:31.110Z,26
2018-07-31T05:01:32.307Z,26.1
2018-07-31T05:02:33.481Z,26.1
2018-07-31T05:03:34.682Z,26.2
2018-07-31T05:04:35.855Z,26.3
2018-07-31T05:05:37.322Z,26.4
2018-07-31T05:06:38.761Z,26.4
2018-07-31T05:07:39.933Z,26.5
2018-07-31T05:08:43.542Z,26.6
2018-07-31T05:09:46.721Z,26.7
2018-07-31T05:10:47.958Z,26.7
2018-07-31T05:11:49.142Z,26.7
2018-07-31T05:12:50.430Z,26.7
2018-07-31T05:13:51.571Z,26.8
2018-07-31T05:14:52.741Z,26.9
2018-07-31T05:15:53.905Z,27
2018-07-31T05:16:55.146Z,27
2018-07-31T05:17:56.630Z,27.1
2018-07-31T05:18:57.790Z,27.2
2018-07-31T05:19:59.157Z,27.4
2018-07-31T05:21:00.860Z,27.4
2018-07-31T05:22:02.380Z,27.5
2018-07-31T05:23:03.563Z,27.5
2018-07-31T05:24:04.772Z,27.5
2018-07-31T05:25:05.934Z,27.6
2018-07-31T05:26:07.185Z,27.6
2018-07-31T05:27:08.429Z,27.7
2018-07-31T05:28:09.846Z,27.8
2018-07-31T05:29:11.044Z,27.9
2018-07-31T05:30:12.221Z,28
2018-07-31T05:31:13.421Z,28
2018-07-31T05:32:14.878Z,28
2018-07-31T05:33:16.051Z,27.9
2018-07-31T05:34:17.210Z,27.9
2018-07-31T05:35:18.413Z,27.9
2018-07-31T05:36:19.710Z,27.9
2018-07-31T05:37:21.378Z,28
2018-07-31T05:38:22.526Z,28.1
2018-07-31T05:39:23.695Z,28
2018-07-31T05:40:24.964Z,27.8
2018-07-31T05:41:26.181Z,27.9
2018-07-31T05:42:27.432Z,28
2018-07-31T05:43:28.570Z,28.3
2018-07-31T05:44:29.733Z,28.5
2018-07-31T05:45:31.024Z,28.5
2018-07-31T05:46:32.240Z,28.5
2018-07-31T05:47:33.495Z,28.7
2018-07-31T05:48:34.861Z,28.6
2018-07-31T05:49:36.595Z,28.7
2018-07-31T05:50:40.168Z,28.6
2018-07-31T05:51:41.334Z,28.7
2018-07-31T05:52:42.699Z,28.9
2018-07-31T05:53:44.144Z,28.9
2018-07-31T05:54:45.335Z,29
2018-07-31T05:55:46.567Z,29
2018-07-31T05:56:47.849Z,29
2018-07-31T05:57:49.042Z,29
2018-07-31T05:58:50.258Z,29.1
2018-07-31T05:59:51.427Z,29.2
2018-07-31T06:00:52.654Z,29.1
2018-07-31T06:01:53.843Z,29
2018-07-31T06:02:55.102Z,29.1
2018-07-31T06:03:56.262Z,29.2
2018-07-31T06:04:57.453Z,29.4
2018-07-31T06:06:00.777Z,29.4
2018-07-31T06:07:02.030Z,29.4
2018-07-31T06:08:03.593Z,29.4
2018-07-31T06:09:05.172Z,29.4
2018-07-31T06:10:06.385Z,29.6
2018-07-31T06:11:07.594Z,29.8
2018-07-31T06:12:13.513Z,29.9
2018-07-31T06:13:15.916Z,30.1
2018-07-31T06:14:18.062Z,30.1
2018-07-31T06:15:19.373Z,30.4
2018-07-31T06:16:20.806Z,31.3
2018-07-31T06:17:23.220Z,32.3
2018-07-31T06:18:24.431Z,33.8
2018-07-31T06:19:25.605Z,33.2
2018-07-31T06:20:26.925Z,34.4
2018-07-31T06:21:30.600Z,32.7
2018-07-31T06:22:32.002Z,31.9
2018-07-31T06:23:33.349Z,31.2
2018-07-31T06:24:34.562Z,31.1
2018-07-31T06:25:36.246Z,31
2018-07-31T06:26:37.396Z,31.5
2018-07-31T06:27:39.614Z,31.5
2018-07-31T06:28:41.599Z,31.5
2018-07-31T06:29:42.822Z,32.3
2018-07-31T06:30:44.018Z,32.8
2018-07-31T06:31:45.331Z,31.8
2018-07-31T06:32:46.558Z,31.9
2018-07-31T06:33:54.118Z,32.9
2018-07-31T06:34:55.299Z,32.3
2018-07-31T06:35:59.346Z,31.8
2018-07-31T06:37:00.915Z,31.3
2018-07-31T06:38:02.231Z,31.2
2018-07-31T06:39:03.778Z,31.2
2018-07-31T06:40:07.359Z,31.9
2018-07-31T06:41:08.579Z,32.3
2018-07-31T06:42:12.210Z,31.9
2018-07-31T06:43:13.725Z,34
2018-07-31T06:44:15.222Z,34.1
2018-07-31T06:45:16.397Z,32.8
2018-07-31T06:46:17.565Z,32.5
2018-07-31T06:47:18.780Z,32.2
2018-07-31T06:48:21.022Z,32.2
2018-07-31T06:49:22.288Z,32.1
2018-07-31T06:50:24.491Z,32.2
2018-07-31T06:51:25.722Z,32.3
2018-07-31T06:52:26.973Z,32.3
2018-07-31T06:53:28.208Z,32.3
2018-07-31T06:54:29.773Z,32.7
2018-07-31T06:55:31.062Z,33
2018-07-31T06:56:33.174Z,32.7
2018-07-31T06:57:34.419Z,32.6
2018-07-31T06:58:35.793Z,32.6
2018-07-31T06:59:37.069Z,32.7
2018-07-31T07:00:38.313Z,32.7
2018-07-31T07:01:39.527Z,32.5
2018-07-31T07:02:40.890Z,32.5
2018-07-31T07:03:42.126Z,32.5
2018-07-31T07:04:44.221Z,32.5
2018-07-31T07:05:46.136Z,33
2018-07-31T07:06:51.867Z,35.3
2018-07-31T07:07:55.200Z,34.7
2018-07-31T07:08:56.398Z,34.8
2018-07-31T07:09:58.670Z,34
2018-07-31T07:10:59.950Z,33.4
2018-07-31T07:12:02.048Z,33.2
2018-07-31T07:13:03.618Z,33
2018-07-31T07:14:04.794Z,32.8
2018-07-31T07:15:06.054Z,32.9
2018-07-31T07:16:07.249Z,32.8
2018-07-31T07:17:08.435Z,32.9
2018-07-31T07:18:09.642Z,32.9
2018-07-31T07:19:10.969Z,33
2018-07-31T07:20:12.225Z,33.1
2018-07-31T07:21:13.646Z,33.1
2018-07-31T07:22:14.881Z,33
2018-07-31T07:23:16.154Z,33
2018-07-31T07:24:17.352Z,33
2018-07-31T07:25:19.821Z,33.1
2018-07-31T07:26:21.715Z,33.1
2018-07-31T07:27:25.794Z,33.3
2018-07-31T07:28:26.970Z,33.7
2018-07-31T07:29:28.187Z,33.7
2018-07-31T07:30:29.418Z,33.7
2018-07-31T07:31:32.706Z,33.8
2018-07-31T07:32:33.922Z,34.3
2018-07-31T07:33:35.193Z,34.8
2018-07-31T07:34:36.358Z,35.8
2018-07-31T07:35:38.636Z,34.6
2018-07-31T07:36:40.021Z,35.3
2018-07-31T07:37:42.132Z,34.6
2018-07-31T07:38:44.304Z,34.2
2018-07-31T07:39:46.489Z,34
2018-07-31T07:40:48.007Z,36.1
2018-07-31T07:41:51.650Z,35.7
2018-07-31T07:42:52.833Z,37.6
2018-07-31T07:43:54.277Z,36.4
2018-07-31T07:44:56.721Z,35.1
2018-07-31T07:45:59.274Z,34.4
2018-07-31T07:47:00.604Z,34.3
2018-07-31T07:48:01.837Z,34.6
2018-07-31T07:49:03.091Z,34.2
2018-07-31T07:50:04.369Z,34.2
2018-07-31T07:51:05.873Z,34.3
2018-07-31T07:52:07.156Z,34.4
2018-07-31T07:53:08.347Z,34.1
2018-07-31T07:54:09.625Z,33.6
2018-07-31T07:55:10.824Z,33.6
2018-07-31T07:56:14.415Z,33.5
2018-07-31T07:57:20.467Z,33.6
2018-07-31T07:58:21.808Z,34.1
2018-07-31T07:59:23.047Z,34
2018-07-31T08:00:24.292Z,33.9
2018-07-31T08:01:25.518Z,33.9
2018-07-31T08:02:26.726Z,34.1
2018-07-31T08:03:28.997Z,34.1
2018-07-31T08:04:32.649Z,34.2
2018-07-31T08:05:33.852Z,34.2
2018-07-31T08:06:35.077Z,34.3
2018-07-31T08:07:36.271Z,35
2018-07-31T08:08:38.512Z,34.8
2018-07-31T08:09:43.244Z,34.6
2018-07-31T08:10:47.718Z,34.5
2018-07-31T08:11:53.503Z,34.5
2018-07-31T08:12:55.167Z,34.5
2018-07-31T08:13:59.448Z,35.1
2018-07-31T08:15:01.291Z,35
2018-07-31T08:16:02.376Z,35.2
2018-07-31T08:17:04.134Z,36.2
2018-07-31T08:18:08.529Z,35.7
2018-07-31T08:19:09.848Z,35.7
2018-07-31T08:20:13.552Z,35.6
2018-07-31T08:21:17.482Z,35.2
2018-07-31T08:22:18.773Z,35
2018-07-31T08:23:20.032Z,35
2018-07-31T08:24:24.510Z,35.1
2018-07-31T08:25:25.755Z,35
2018-07-31T08:26:27.002Z,35
2018-07-31T08:27:28.619Z,35.1
2018-07-31T08:28:29.819Z,35.4
2018-07-31T08:29:31.595Z,35.3
2018-07-31T08:30:42.901Z,35.3
2018-07-31T08:31:45.194Z,35
2018-07-31T08:32:46.449Z,35.2
2018-07-31T08:33:47.638Z,35.1
2018-07-31T08:34:48.850Z,35.1
2018-07-31T08:35:50.343Z,35.2
2018-07-31T08:36:54.535Z,35.1
2018-07-31T08:37:55.792Z,35
2018-07-31T08:38:59.465Z,35
2018-07-31T08:40:01.028Z,34.9
2018-07-31T08:41:02.298Z,35.2
2018-07-31T08:42:03.470Z,35.3
2018-07-31T08:43:04.705Z,35.2
2018-07-31T08:44:06.146Z,35.2
2018-07-31T08:45:07.697Z,35.3
2018-07-31T08:46:08.918Z,35.3
2018-07-31T08:47:10.805Z,35.2
2018-07-31T08:48:12.061Z,35.2
2018-07-31T08:49:13.341Z,35.3
2018-07-31T08:50:14.689Z,35.4
2018-07-31T08:51:17.211Z,35.4
2018-07-31T08:52:18.612Z,35.4
2018-07-31T08:53:19.985Z,35.4
2018-07-31T08:54:21.495Z,35.3
2018-07-31T08:55:22.728Z,35.3
2018-07-31T08:56:24.036Z,35.4
2018-07-31T08:57:25.380Z,35.3
2018-07-31T08:58:26.826Z,35.3
2018-07-31T08:59:28.018Z,35.3
2018-07-31T09:00:29.255Z,35.2
2018-07-31T09:01:30.461Z,35.5
2018-07-31T09:02:31.948Z,35.4
2018-07-31T09:03:33.405Z,35.2
2018-07-31T09:04:34.799Z,35.2
2018-07-31T09:05:37.034Z,35.3
2018-07-31T09:06:38.205Z,35.3
2018-07-31T09:07:44.602Z,35.2
2018-07-31T09:08:45.868Z,35.3
2018-07-31T09:09:47.032Z,35.4
2018-07-31T09:10:48.243Z,35.7
2018-07-31T09:11:50.999Z,35.6
2018-07-31T09:12:58.306Z,35.5
2018-07-31T09:14:07.122Z,35.7
2018-07-31T09:15:08.356Z,35.5
2018-07-31T09:16:09.786Z,35.2
2018-07-31T09:17:13.204Z,34.9
2018-07-31T09:18:21.650Z,35
2018-07-31T09:19:23.049Z,35.1
2018-07-31T09:20:26.716Z,35.3
2018-07-31T09:21:28.006Z,35
2018-07-31T09:22:29.298Z,35.2
2018-07-31T09:23:31.627Z,35.2
2018-07-31T09:24:35.362Z,35
2018-07-31T09:25:36.566Z,34.8
2018-07-31T09:26:37.777Z,35.1
2018-07-31T09:27:39.110Z,35.2
2018-07-31T09:28:40.548Z,35.2
2018-07-31T09:29:41.864Z,34.9
2018-07-31T09:30:43.189Z,34.8
2018-07-31T09:31:44.347Z,35
2018-07-31T09:32:45.546Z,35.2
2018-07-31T09:33:49.676Z,35.3
2018-07-31T09:34:51.026Z,35.2
2018-07-31T09:35:52.259Z,35
2018-07-31T09:36:53.738Z,35.2
2018-07-31T09:37:54.937Z,35.4
2018-07-31T09:38:56.138Z,35.2
2018-07-31T09:39:58.524Z,35.1
2018-07-31T09:40:59.867Z,35
2018-07-31T09:42:01.539Z,34.9
2018-07-31T09:43:03.100Z,34.8
2018-07-31T09:44:04.816Z,34.8
2018-07-31T09:45:07.473Z,34.9
2018-07-31T09:46:09.033Z,34.7
2018-07-31T09:47:10.224Z,35
2018-07-31T09:48:12.535Z,35
2018-07-31T09:49:15.829Z,35
2018-07-31T09:50:17.053Z,35.2
2018-07-31T09:51:25.858Z,35
2018-07-31T09:52:29.509Z,35
2018-07-31T09:53:31.689Z,34.8
2018-07-31T09:54:34.236Z,34.7
2018-07-31T09:55:35.514Z,34.9
2018-07-31T09:56:36.723Z,34.7
2018-07-31T09:57:38.360Z,34.2
2018-07-31T09:58:39.631Z,34.5
2018-07-31T09:59:40.902Z,34.7
2018-07-31T10:00:42.222Z,34.7
2018-07-31T10:01:43.491Z,34.9
2018-07-31T10:02:44.704Z,34.9
2018-07-31T10:03:48.352Z,35.2
2018-07-31T10:04:50.138Z,35.1
2018-07-31T10:05:51.707Z,34.9
2018-07-31T10:06:54.904Z,35
2018-07-31T10:07:56.364Z,34.8
2018-07-31T10:08:57.566Z,34.8
2018-07-31T10:09:58.922Z,34.9
2018-07-31T10:11:07.366Z,34.9
2018-07-31T10:12:08.835Z,34.9
2018-07-31T10:13:14.179Z,34.8
2018-07-31T10:14:15.455Z,34.7
2018-07-31T10:15:16.907Z,34.9
2018-07-31T10:16:20.486Z,34.9
2018-07-31T10:17:25.106Z,34.9
2018-07-31T10:18:27.063Z,34.9
2018-07-31T10:19:28.295Z,34.7
2018-07-31T10:20:29.530Z,34.6
2018-07-31T10:21:32.963Z,34.6
2018-07-31T10:22:34.250Z,34.7
2018-07-31T10:23:41.696Z,34.6
2018-07-31T10:24:42.898Z,34.6
2018-07-31T10:25:44.160Z,34.7
2018-07-31T10:26:45.439Z,34.7
2018-07-31T10:27:49.064Z,34.7
2018-07-31T10:28:50.430Z,34.7
2018-07-31T10:29:54.132Z,34.7
2018-07-31T10:30:55.394Z,34.6
2018-07-31T10:31:56.624Z,34.7
2018-07-31T10:32:57.934Z,34.5
2018-07-31T10:34:01.602Z,34.5
2018-07-31T10:35:03.742Z,34.6
2018-07-31T10:36:05.485Z,34.7
2018-07-31T10:37:07.518Z,34.8
2018-07-31T10:38:14.842Z,34.4
2018-07-31T10:39:16.082Z,34.5
2018-07-31T10:40:17.263Z,34.8
2018-07-31T10:41:19.117Z,34.8
2018-07-31T10:42:21.303Z,34.9
2018-07-31T10:43:22.510Z,34.9
2018-07-31T10:44:23.734Z,34.8
2018-07-31T10:45:24.979Z,34.9
2018-07-31T10:46:38.241Z,34.9
2018-07-31T10:47:39.762Z,34.9
2018-07-31T10:48:45.863Z,34.8
2018-07-31T10:49:47.245Z,34.9
2018-07-31T10:50:48.499Z,34.8
2018-07-31T10:51:51.939Z,34.7
2018-07-31T10:52:53.256Z,34.7
2018-07-31T10:53:54.546Z,34.7
2018-07-31T10:54:55.808Z,34.8
2018-07-31T10:56:01.994Z,34.7
2018-07-31T10:57:03.219Z,34.6
2018-07-31T10:58:04.618Z,34.6
2018-07-31T10:59:05.972Z,34.7
2018-07-31T11:00:07.506Z,34.7
2018-07-31T11:01:09.499Z,34.6
2018-07-31T11:02:10.983Z,34.7
2018-07-31T11:03:20.710Z,34.7
2018-07-31T11:04:22.195Z,34.7
2018-07-31T11:05:23.390Z,34.6
2018-07-31T11:06:24.889Z,34.5
2018-07-31T11:07:26.026Z,34.6
2018-07-31T11:08:27.302Z,34.7
2018-07-31T11:09:29.551Z,34.8
2018-07-31T11:10:31.042Z,35
2018-07-31T11:11:35.640Z,35.1
2018-07-31T11:12:36.911Z,35.1
2018-07-31T11:13:38.207Z,35.1
2018-07-31T11:14:40.446Z,35.1
2018-07-31T11:15:41.891Z,35.1
2018-07-31T11:16:43.368Z,35
2018-07-31T11:17:44.763Z,35
2018-07-31T11:18:46.391Z,35.1
2018-07-31T11:19:48.119Z,35.1
2018-07-31T11:20:49.401Z,35.2
2018-07-31T11:21:50.568Z,35.2
2018-07-31T11:22:51.964Z,35.2
2018-07-31T11:23:55.221Z,35.1
2018-07-31T11:24:56.433Z,35.3
2018-07-31T11:26:04.901Z,35.3
2018-07-31T11:27:06.224Z,35.3
2018-07-31T11:28:07.862Z,35.3
2018-07-31T11:29:14.296Z,35.4
2018-07-31T11:30:15.578Z,35.4
2018-07-31T11:31:18.144Z,35.2
2018-07-31T11:32:24.036Z,35
2018-07-31T11:33:25.393Z,35
2018-07-31T11:34:26.865Z,35.1
2018-07-31T11:35:28.263Z,35.1
2018-07-31T11:36:29.615Z,35.1
2018-07-31T11:37:30.877Z,35
2018-07-31T11:38:32.259Z,35.1
2018-07-31T11:39:33.614Z,34.9
2018-07-31T11:40:34.912Z,35
2018-07-31T11:41:37.140Z,34.8
2018-07-31T11:42:38.607Z,34.9
2018-07-31T11:43:39.838Z,35.1
2018-07-31T11:44:47.619Z,35.1
2018-07-31T11:45:48.901Z,35.1
2018-07-31T11:46:51.224Z,35.1
2018-07-31T11:47:52.828Z,35.1
2018-07-31T11:48:54.291Z,35.1
2018-07-31T11:49:55.972Z,35.2
2018-07-31T11:50:57.489Z,35.1
2018-07-31T11:51:58.760Z,35.2
2018-07-31T11:53:00.012Z,35.2
2018-07-31T11:54:01.356Z,35.3
2018-07-31T11:55:02.761Z,35.3
2018-07-31T11:56:04.952Z,35.1
2018-07-31T11:57:06.251Z,35.1
2018-07-31T11:58:07.557Z,35
2018-07-31T11:59:08.919Z,34.7
2018-07-31T12:00:12.606Z,34.8
2018-07-31T12:01:15.819Z,34.9
2018-07-31T12:02:21.777Z,34.8
2018-07-31T12:03:23.180Z,35
2018-07-31T12:04:24.516Z,35.2
2018-07-31T12:05:26.016Z,35.1
2018-07-31T12:06:27.269Z,35.2
2018-07-31T12:07:28.981Z,35.2
2018-07-31T12:08:30.210Z,35.2
2018-07-31T12:09:32.482Z,35.4
2018-07-31T12:10:33.791Z,35.4
2018-07-31T12:11:40.967Z,35.4
2018-07-31T12:12:42.300Z,35.1
2018-07-31T12:13:44.807Z,35
2018-07-31T12:14:48.231Z,35.2
2018-07-31T12:15:49.728Z,35.3
2018-07-31T12:16:52.234Z,35.3
2018-07-31T12:17:53.866Z,35.2
2018-07-31T12:18:57.555Z,35.1
2018-07-31T12:20:00.825Z,35.2
2018-07-31T12:21:04.887Z,35
2018-07-31T12:22:06.352Z,35
2018-07-31T12:23:08.717Z,34.8
2018-07-31T12:24:10.104Z,34.7
2018-07-31T12:25:11.586Z,34.6
2018-07-31T12:26:17.881Z,34.5
2018-07-31T12:27:19.402Z,34.5
2018-07-31T12:28:20.633Z,34.6
2018-07-31T12:29:24.255Z,34.6
2018-07-31T12:30:25.735Z,34.8
2018-07-31T12:31:41.721Z,34.8
2018-07-31T12:32:43.031Z,34.9
2018-07-31T12:33:44.284Z,34.9
2018-07-31T12:34:45.523Z,34.9
2018-07-31T12:35:46.742Z,34.8
2018-07-31T12:36:48.229Z,34.7
2018-07-31T12:37:49.613Z,34.7
2018-07-31T12:38:50.876Z,34.7
2018-07-31T12:39:52.481Z,34.8
2018-07-31T12:40:54.718Z,34.8
2018-07-31T12:41:55.944Z,34.6
2018-07-31T12:42:57.617Z,34.6
2018-07-31T12:43:59.467Z,34.6
2018-07-31T12:45:03.050Z,34.6
2018-07-31T12:46:04.644Z,34.7
2018-07-31T12:47:06.274Z,34.7
2018-07-31T12:48:07.789Z,34.6
2018-07-31T12:49:12.000Z,34.7
2018-07-31T12:50:13.764Z,34.8
2018-07-31T12:51:20.711Z,34.8
2018-07-31T12:52:37.721Z,34.9
2018-07-31T12:53:41.528Z,34.8
2018-07-31T12:54:42.789Z,34.7
2018-07-31T12:55:44.056Z,34.7
2018-07-31T12:56:45.285Z,34.7
2018-07-31T12:57:48.522Z,34.7
2018-07-31T12:58:49.761Z,34.8
2018-07-31T12:59:52.312Z,34.8
2018-07-31T13:00:55.480Z,34.8
2018-07-31T13:01:56.837Z,34.7
2018-07-31T13:02:58.393Z,34.7
2018-07-31T13:04:08.795Z,34.7
2018-07-31T13:05:10.043Z,34.7
2018-07-31T13:06:11.272Z,34.7
2018-07-31T13:07:12.570Z,34.7
2018-07-31T13:08:14.706Z,34.6
2018-07-31T13:09:17.096Z,34.7
2018-07-31T13:10:18.314Z,34.7
2018-07-31T13:11:20.634Z,34.8
2018-07-31T13:12:21.969Z,34.8
2018-07-31T13:13:28.109Z,34.8
2018-07-31T13:14:31.776Z,34.7
2018-07-31T13:15:35.753Z,34.7
2018-07-31T13:16:37.378Z,34.7
2018-07-31T13:17:47.302Z,34.7
2018-07-31T13:18:52.512Z,34.7
2018-07-31T13:19:59.000Z,34.7
2018-07-31T13:21:01.296Z,34.6
2018-07-31T13:22:03.583Z,34.6
2018-07-31T13:23:11.357Z,34.8
2018-07-31T13:24:14.695Z,34.9
2018-07-31T13:25:17.851Z,34.9
2018-07-31T13:26:26.553Z,34.9
2018-07-31T13:27:30.690Z,34.9
2018-07-31T13:28:48.545Z,34.7
2018-07-31T13:31:11.321Z,34.8
2018-07-31T13:32:13.270Z,34.8
2018-07-31T13:33:17.795Z,34.8
2018-07-31T13:34:20.947Z,34.8
2018-07-31T13:35:23.299Z,34.9
2018-07-31T13:36:25.914Z,34.8
2018-07-31T13:37:32.629Z,34.9
2018-07-31T13:38:49.478Z,35
2018-07-31T13:39:51.483Z,35
2018-07-31T13:40:54.813Z,35.1
2018-07-31T13:42:01.675Z,35
2018-07-31T13:43:10.606Z,34.9
2018-07-31T13:44:14.432Z,34.9
2018-07-31T13:45:19.354Z,34.9
2018-07-31T13:46:21.402Z,34.9
2018-07-31T13:47:25.591Z,34.9
2018-07-31T13:48:32.671Z,35
2018-07-31T13:49:41.130Z,34.8
2018-07-31T13:50:55.657Z,34.9
2018-07-31T13:51:59.388Z,34.8
2018-07-31T13:53:05.136Z,35